Time;durP1;ratioP1;P1;durP2;ratioP2;P2;SDS_P1;SDS_P2;PMS_P1;PMS_P2;Temp;Humidity;BMP_temperature;BMP_pressure;BME280_temperature;BME280_humidity;BME280_pressure;Samples;Min_cycle;Max_cycle;Signal;HPM_P1;HPM_P2
2023/07/20 00:00:00;;;;;;;;;;;;;;;;;;5092943;28;20020;-71
2023/07/20 00:02:27;;;;;;;;;;;;;;;;;;5093024;28;19935;-71
2023/07/20 00:04:54;;;;;;;;;;;;;;;;;;5092731;28;19982;-72
2023/07/20 00:07:21;;;;;;;;;;;;;;;;;;5092614;28;20348;-71
2023/07/20 00:09:48;;;;;;;;;;;;;;;;;;5090152;28;20334;-72
2023/07/20 00:12:15;;;;;;;;;;;;;;;;;;5092619;28;20334;-70
2023/07/20 00:14:42;;;;;;;;;;;;;;;;;;5092009;28;19924;-71
2023/07/20 00:17:09;;;;;;;;;;;;;;;;;;5092156;28;20019;-71
2023/07/20 00:19:36;;;;;;;;;;;;;;;;;;5092505;28;20039;-71
2023/07/20 00:22:04;;;;;;;;;;;;;;;;;;5092543;28;19924;-72
2023/07/20 00:24:31;;;;;;;;;;;;;;;;;;5092684;28;20073;-71
2023/07/20 00:27:00;;;;;;;;;;;;;;;;;;5091456;28;20366;-71
2023/07/20 00:29:27;;;;;;;;;;;;;;;;;;5092316;28;19969;-71
2023/07/20 00:31:54;;;;;;;;;;;;;;;;;;5092600;28;19924;-71
2023/07/20 00:34:21;;;;;;;;;;;;;;;;;;5092885;28;19956;-72
2023/07/20 00:36:49;;;;;;;;;;;;;;;;;;5092311;28;19930;-71
2023/07/20 00:39:16;;;;;;;;;;;;;;;;;;5094618;28;19950;-71
2023/07/20 00:41:43;;;;;;;;;;;;;;;;;;5095678;28;19946;-71
2023/07/20 00:44:10;;;;;;;;;;;;;;;;;;5093505;28;20020;-71
2023/07/20 00:46:37;;;;;;;;;;;;;;;;;;5095906;28;19925;-71
2023/07/20 00:49:04;;;;;;;;;;;;;;;;;;5095184;28;20011;-71
2023/07/20 00:51:31;;;;;;;;;;;;;;;;;;5092807;28;20378;-72
2023/07/20 00:53:58;;;;;;;;;;;;;;;;;;5095405;28;19925;-71
2023/07/20 00:56:25;;;;;;;;;;;;;;;;;;5093481;28;20098;-71
2023/07/20 00:58:52;;;;;;;;;;;;;;;;;;5093506;28;19964;-72
2023/07/20 01:01:19;;;;;;;;;;;;;;;;;;5093068;28;20026;-71
2023/07/20 01:03:46;;;;;;;;;;;;;;;;;;5095304;28;19955;-71
2023/07/20 01:06:13;;;;;;;;;;;;;;;;;;5096249;28;20018;-71
2023/07/20 01:08:40;;;;;;;;;;;;;;;;;;5095832;28;19924;-71
2023/07/20 01:11:07;;;;;;;;;;;;;;;;;;5095822;28;20010;-71
2023/07/20 01:13:34;;;;;;;;;;;;;;;;;;5095637;28;19931;-70
2023/07/20 01:16:01;;;;;;;;;;;;;;;;;;5095786;28;19931;-71
2023/07/20 01:18:28;;;;;;;;;;;;;;;;;;5094934;28;20019;-71
2023/07/20 01:20:55;;;;;;;;;;;;;;;;;;5095637;28;20357;-71
2023/07/20 01:23:22;;;;;;;;;;;;;;;;;;5095561;28;19924;-71
2023/07/20 01:25:48;;;;;;;;;;;;;;;;;;5095422;28;19971;-71
2023/07/20 01:28:15;;;;;;;;;;;;;;;;;;5095269;28;19934;-71
2023/07/20 01:30:42;;;;;;;;;;;;;;;;;;5094896;28;19934;-71
2023/07/20 01:33:09;;;;;;;;;;;;;;;;;;5095253;28;19924;-71
2023/07/20 01:35:36;;;;;;;;;;;;;;;;;;5094493;28;20018;-71
2023/07/20 01:38:03;;;;;;;;;;;;;;;;;;5093999;28;19970;-71
2023/07/20 01:40:30;;;;;;;;;;;;;;;;;;5094977;28;20481;-71
2023/07/20 01:42:57;;;;;;;;;;;;;;;;;;5094883;28;19935;-71
2023/07/20 01:45:24;;;;;;;;;;;;;;;;;;5087345;28;19943;-70
2023/07/20 01:47:51;;;;;;;;;;;;;;;;;;5085879;28;19974;-71
2023/07/20 01:50:18;;;;;;;;;;;;;;;;;;5074153;28;19924;-71
2023/07/20 01:52:45;;;;;;;;;;;;;;;;;;5088623;28;20346;-70
2023/07/20 01:55:12;;;;;;;;;;;;;;;;;;5095078;28;20026;-70
2023/07/20 01:57:39;;;;;;;;;;;;;;;;;;5094805;28;20060;-70
2023/07/20 02:00:06;;;;;;;;;;;;;;;;;;5094980;28;20008;-70
2023/07/20 02:02:33;;;;;;;;;;;;;;;;;;5094597;28;20333;-71
2023/07/20 02:05:00;;;;;;;;;;;;;;;;;;5094506;28;20290;-71
2023/07/20 02:07:27;;;;;;;;;;;;;;;;;;5094013;28;19967;-71
2023/07/20 02:09:54;;;;;;;;;;;;;;;;;;5094227;28;20030;-71
2023/07/20 02:12:21;;;;;;;;;;;;;;;;;;5094756;28;20029;-71
2023/07/20 02:14:51;;;;;;;;;;;;;;;;;;5080971;28;20023;-71
2023/07/20 02:17:17;;;;;;;;;;;;;;;;;;5074529;28;19924;-71
2023/07/20 02:19:45;;;;;;;;;;;;;;;;;;5074156;28;20003;-72
2023/07/20 02:22:12;;;;;;;;;;;;;;;;;;5074084;28;20383;-71
2023/07/20 02:24:39;;;;;;;;;;;;;;;;;;5076737;28;19932;-71
2023/07/20 02:27:06;;;;;;;;;;;;;;;;;;5094062;28;19931;-71
2023/07/20 02:29:33;;;;;;;;;;;;;;;;;;5093908;28;19923;-71
2023/07/20 02:32:00;;;;;;;;;;;;;;;;;;5093440;28;19924;-71
2023/07/20 02:34:27;;;;;;;;;;;;;;;;;;5094405;28;19924;-71
2023/07/20 02:36:56;;;;;;;;;;;;;;;;;;5093067;28;19924;-71
2023/07/20 02:39:23;;;;;;;;;;;;;;;;;;5092590;28;19924;-71
2023/07/20 02:41:50;;;;;;;;;;;;;;;;;;5091987;28;19968;-71
2023/07/20 02:44:17;;;;;;;;;;;;;;;;;;5093473;28;20018;-71
2023/07/20 02:46:44;;;;;;;;;;;;;;;;;;5093565;28;20439;-71
2023/07/20 02:49:11;;;;;;;;;;;;;;;;;;5093265;28;20330;-71
2023/07/20 02:51:38;;;;;;;;;;;;;;;;;;5092070;28;20017;-71
2023/07/20 02:54:05;;;;;;;;;;;;;;;;;;5093700;28;19971;-71
2023/07/20 02:56:32;;;;;;;;;;;;;;;;;;5093731;28;20015;-71
2023/07/20 02:58:59;;;;;;;;;;;;;;;;;;5092803;28;20007;-71
2023/07/20 03:01:29;;;;;;;;;;;;;;;;;;5092660;28;20011;-71
2023/07/20 03:03:56;;;;;;;;;;;;;;;;;;5093757;28;19956;-71
2023/07/20 03:06:22;;;;;;;;;;;;;;;;;;5093095;28;20015;-72
2023/07/20 03:08:51;;;;;;;;;;;;;;;;;;5093379;28;19924;-71
2023/07/20 03:11:18;;;;;;;;;;;;;;;;;;5093430;28;19977;-72
2023/07/20 03:13:45;;;;;;;;;;;;;;;;;;5093369;28;19924;-72
2023/07/20 03:16:15;;;;;;;;;;;;;;;;;;5092283;28;19977;-72
2023/07/20 03:18:42;;;;;;;;;;;;;;;;;;5093285;28;19942;-72
2023/07/20 03:21:11;;;;;;;;;;;;;;;;;;5093654;28;20019;-72
2023/07/20 03:23:38;;;;;;;;;;;;;;;;;;5093114;28;19931;-72
2023/07/20 03:26:05;;;;;;;;;;;;;;;;;;5093148;28;19999;-72
2023/07/20 03:28:32;;;;;;;;;;;;;;;;;;5092197;28;19963;-71
2023/07/20 03:30:59;;;;;;;;;;;;;;;;;;5086120;28;19967;-72
2023/07/20 03:33:25;;;;;;;;;;;;;;;;;;5082849;28;20016;-72
2023/07/20 03:35:52;;;;;;;;;;;;;;;;;;5093419;28;20015;-72
2023/07/20 03:38:19;;;;;;;;;;;;;;;;;;5075048;28;20410;-71
2023/07/20 03:40:46;;;;;;;;;;;;;;;;;;5087613;28;20400;-72
2023/07/20 03:43:13;;;;;;;;;;;;;;;;;;5091179;28;19932;-72
2023/07/20 03:45:40;;;;;;;;;;;;;;;;;;5092500;28;19969;-71
2023/07/20 03:48:07;;;;;;;;;;;;;;;;;;5093010;28;19975;-72
2023/07/20 03:50:35;;;;;;;;;;;;;;;;;;5091831;28;19924;-72
2023/07/20 03:53:01;;;;;;;;;;;;;;;;;;5092702;28;20010;-71
2023/07/20 03:55:29;;;;;;;;;;;;;;;;;;5092702;28;20019;-71
2023/07/20 03:57:56;;;;;;;;;;;;;;;;;;5092747;28;20298;-71
2023/07/20 04:00:23;;;;;;;;;;;;;;;;;;5091144;28;19924;-71
2023/07/20 04:02:50;;;;;;;;;;;;;;;;;;5093092;28;19969;-71
2023/07/20 04:05:17;;;;;;;;;;;;;;;;;;5093064;28;19924;-72
2023/07/20 04:07:44;;;;;;;;;;;;;;;;;;5091757;28;19928;-71
2023/07/20 04:10:11;;;;;;;;;;;;;;;;;;5092610;28;20015;-72
2023/07/20 04:12:38;;;;;;;;;;;;;;;;;;5093118;28;19979;-72
2023/07/20 04:15:06;;;;;;;;;;;;;;;;;;5095726;28;19930;-72
2023/07/20 04:17:33;;;;;;;;;;;;;;;;;;5096737;28;19931;-72
2023/07/20 04:20:00;;;;;;;;;;;;;;;;;;5096472;28;19946;-72
2023/07/20 04:22:27;;;;;;;;;;;;;;;;;;5096726;28;20462;-72
2023/07/20 04:24:54;;;;;;;;;;;;;;;;;;5096012;28;19928;-72
2023/07/20 04:27:21;;;;;;;;;;;;;;;;;;5096135;28;20007;-72
2023/07/20 04:29:47;;;;;;;;;;;;;;;;;;5096392;28;20006;-73
2023/07/20 04:32:14;;;;;;;;;;;;;;;;;;5096494;28;19970;-72
2023/07/20 04:34:41;;;;;;;;;;;;;;;;;;5096592;28;20023;-72
2023/07/20 04:37:08;;;;;;;;;;;;;;;;;;5096047;28;19967;-73
2023/07/20 04:39:35;;;;;;;;;;;;;;;;;;5095980;28;19971;-72
2023/07/20 04:42:02;;;;;;;;;;;;;;;;;;5081791;28;19924;-72
2023/07/20 04:44:29;;;;;;;;;;;;;;;;;;5075712;28;20031;-72
2023/07/20 04:46:56;;;;;;;;;;;;;;;;;;5075986;28;20023;-72
2023/07/20 04:49:23;;;;;;;;;;;;;;;;;;5075865;28;20035;-72
2023/07/20 04:51:50;;;;;;;;;;;;;;;;;;5075581;28;19954;-72
2023/07/20 04:54:18;;;;;;;;;;;;;;;;;;5086978;28;19924;-71
2023/07/20 04:56:45;;;;;;;;;;;;;;;;;;5095257;28;19930;-71
2023/07/20 04:59:12;;;;;;;;;;;;;;;;;;5095047;28;19928;-71
2023/07/20 05:01:39;;;;;;;;;;;;;;;;;;5095613;28;19987;-71
2023/07/20 05:04:06;;;;;;;;;;;;;;;;;;5095877;28;19998;-72
2023/07/20 05:06:33;;;;;;;;;;;;;;;;;;5095899;28;20348;-72
2023/07/20 05:09:00;;;;;;;;;;;;;;;;;;5096006;28;19959;-72
2023/07/20 05:11:27;;;;;;;;;;;;;;;;;;5095757;28;19963;-71
2023/07/20 05:13:54;;;;;;;;;;;;;;;;;;5095482;28;19928;-71
2023/07/20 05:16:21;;;;;;;;;;;;;;;;;;5083581;28;19924;-71
2023/07/20 05:18:48;;;;;;;;;;;;;;;;;;5075243;28;20011;-72
2023/07/20 05:21:15;;;;;;;;;;;;;;;;;;5075477;28;20015;-71
2023/07/20 05:23:42;;;;;;;;;;;;;;;;;;5074616;28;20015;-71
2023/07/20 05:26:09;;;;;;;;;;;;;;;;;;5085596;28;20010;-72
2023/07/20 05:28:36;;;;;;;;;;;;;;;;;;5095251;28;20019;-73
2023/07/20 05:31:03;;;;;;;;;;;;;;;;;;5094765;28;20015;-72
2023/07/20 05:33:30;;;;;;;;;;;;;;;;;;5094522;28;20014;-71
2023/07/20 05:35:57;;;;;;;;;;;;;;;;;;5094910;28;20353;-72
2023/07/20 05:38:24;;;;;;;;;;;;;;;;;;5095131;28;19928;-72
2023/07/20 05:40:51;;;;;;;;;;;;;;;;;;5095356;28;20030;-71
2023/07/20 05:43:18;;;;;;;;;;;;;;;;;;5095464;28;20010;-72
2023/07/20 05:45:45;;;;;;;;;;;;;;;;;;5095271;28;20023;-71
2023/07/20 05:48:13;;;;;;;;;;;;;;;;;;5093703;28;20363;-71
2023/07/20 05:50:40;;;;;;;;;;;;;;;;;;5093633;28;19932;-72
2023/07/20 05:53:07;;;;;;;;;;;;;;;;;;5094607;28;20015;-72
2023/07/20 05:55:34;;;;;;;;;;;;;;;;;;5094502;28;20461;-72
2023/07/20 05:58:01;;;;;;;;;;;;;;;;;;5094502;28;19924;-71
2023/07/20 06:00:28;;;;;;;;;;;;;;;;;;5094053;28;20371;-71
2023/07/20 06:02:55;;;;;;;;;;;;;;;;;;5094622;28;20339;-72
2023/07/20 06:05:23;;;;;;;;;;;;;;;;;;5093280;28;19927;-72
2023/07/20 06:07:50;;;;;;;;;;;;;;;;;;5094460;28;19924;-72
2023/07/20 06:10:17;;;;;;;;;;;;;;;;;;5094386;28;19924;-72
2023/07/20 06:12:44;;;;;;;;;;;;;;;;;;5094638;28;20387;-71
2023/07/20 06:15:11;;;;;;;;;;;;;;;;;;5094248;28;19990;-72
2023/07/20 06:17:38;;;;;;;;;;;;;;;;;;5094668;28;19924;-71
2023/07/20 06:20:05;;;;;;;;;;;;;;;;;;5074358;28;19924;-72
2023/07/20 06:22:32;;;;;;;;;;;;;;;;;;5075866;28;20019;-71
2023/07/20 06:24:59;;;;;;;;;;;;;;;;;;5094107;28;19982;-72
2023/07/20 06:27:26;;;;;;;;;;;;;;;;;;5094412;28;19978;-71
2023/07/20 06:29:53;;;;;;;;;;;;;;;;;;5093997;28;19930;-71
2023/07/20 06:32:20;;;;;;;;;;;;;;;;;;5093935;28;20653;-71
2023/07/20 06:34:47;;;;;;;;;;;;;;;;;;5094097;28;19951;-71
2023/07/20 06:37:14;;;;;;;;;;;;;;;;;;5092906;28;19924;-71
2023/07/20 06:39:41;;;;;;;;;;;;;;;;;;5093124;28;19967;-71
2023/07/20 06:42:07;;;;;;;;;;;;;;;;;;5092589;28;19924;-71
2023/07/20 06:44:34;;;;;;;;;;;;;;;;;;5093105;28;20354;-71
2023/07/20 06:47:01;;;;;;;;;;;;;;;;;;5093630;28;20014;-71
2023/07/20 06:49:28;;;;;;;;;;;;;;;;;;5094040;28;20022;-71
2023/07/20 06:51:55;;;;;;;;;;;;;;;;;;5093666;28;20142;-71
2023/07/20 06:54:22;;;;;;;;;;;;;;;;;;5093299;28;20011;-70
2023/07/20 06:56:49;;;;;;;;;;;;;;;;;;5092103;28;19924;-71
2023/07/20 06:59:17;;;;;;;;;;;;;;;;;;5093237;28;19971;-72
2023/07/20 07:01:44;;;;;;;;;;;;;;;;;;5091502;28;19924;-71
2023/07/20 07:04:11;;;;;;;;;;;;;;;;;;5092744;28;20007;-71
2023/07/20 07:06:38;;;;;;;;;;;;;;;;;;5092797;28;20371;-71
2023/07/20 07:09:05;;;;;;;;;;;;;;;;;;5092761;28;19924;-71
2023/07/20 07:11:32;;;;;;;;;;;;;;;;;;5093195;28;20024;-72
2023/07/20 07:13:59;;;;;;;;;;;;;;;;;;5087037;28;20014;-71
2023/07/20 07:16:26;;;;;;;;;;;;;;;;;;5072825;28;19932;-72
2023/07/20 07:18:53;;;;;;;;;;;;;;;;;;5072575;28;20394;-71
2023/07/20 07:21:20;;;;;;;;;;;;;;;;;;5073029;28;19929;-71
2023/07/20 07:23:47;;;;;;;;;;;;;;;;;;5072530;28;19964;-71
2023/07/20 07:26:14;;;;;;;;;;;;;;;;;;5072813;28;19994;-71
2023/07/20 07:28:41;;;;;;;;;;;;;;;;;;5072292;28;19947;-71
2023/07/20 07:31:08;;;;;;;;;;;;;;;;;;5072353;28;20027;-71
2023/07/20 07:33:35;;;;;;;;;;;;;;;;;;5072566;28;20291;-72
2023/07/20 07:36:02;;;;;;;;;;;;;;;;;;5072859;28;19931;-71
2023/07/20 07:38:29;;;;;;;;;;;;;;;;;;5082770;28;20011;-72
2023/07/20 07:40:56;;;;;;;;;;;;;;;;;;5092701;28;19930;-72
2023/07/20 07:43:23;;;;;;;;;;;;;;;;;;5092323;28;20023;-72
2023/07/20 07:45:50;;;;;;;;;;;;;;;;;;5092528;28;20268;-71
2023/07/20 07:48:17;;;;;;;;;;;;;;;;;;5084306;28;20343;-72
2023/07/20 07:50:44;;;;;;;;;;;;;;;;;;5088344;28;20302;-73
2023/07/20 07:53:11;;;;;;;;;;;;;;;;;;5092484;28;20006;-72
2023/07/20 07:55:38;;;;;;;;;;;;;;;;;;5092532;28;19924;-72
2023/07/20 07:58:05;;;;;;;;;;;;;;;;;;5092529;28;20007;-71
2023/07/20 08:00:32;;;;;;;;;;;;;;;;;;5092400;28;20007;-72
2023/07/20 08:02:59;;;;;;;;;;;;;;;;;;5092340;28;20330;-72
2023/07/20 08:05:27;;;;;;;;;;;;;;;;;;5091788;28;19930;-71
2023/07/20 08:07:54;;;;;;;;;;;;;;;;;;5091837;28;19924;-73
2023/07/20 08:10:21;;;;;;;;;;;;;;;;;;5092257;28;20019;-71
2023/07/20 08:12:48;;;;;;;;;;;;;;;;;;5091987;28;20019;-71
2023/07/20 08:15:15;;;;;;;;;;;;;;;;;;5092387;28;19985;-71
2023/07/20 08:17:42;;;;;;;;;;;;;;;;;;5088185;28;20354;-71
2023/07/20 08:20:11;;;;;;;;;;;;;;;;;;5092158;28;20311;-71
2023/07/20 08:22:38;;;;;;;;;;;;;;;;;;5081225;28;19924;-69
2023/07/20 08:25:05;;;;;;;;;;;;;;;;;;5072246;28;19924;-72
2023/07/20 08:27:32;;;;;;;;;;;;;;;;;;5072054;28;20007;-72
2023/07/20 08:29:59;;;;;;;;;;;;;;;;;;5071842;28;20011;-71
2023/07/20 08:32:25;;;;;;;;;;;;;;;;;;5079245;28;20009;-71
2023/07/20 08:34:52;;;;;;;;;;;;;;;;;;5091754;28;20341;-71
2023/07/20 08:37:20;;;;;;;;;;;;;;;;;;5091885;28;20381;-71
2023/07/20 08:39:47;;;;;;;;;;;;;;;;;;5091223;28;20011;-71
2023/07/20 08:42:13;;;;;;;;;;;;;;;;;;5092222;28;19984;-72
2023/07/20 08:44:40;;;;;;;;;;;;;;;;;;5092098;28;20027;-70
2023/07/20 08:47:08;;;;;;;;;;;;;;;;;;5092093;28;19930;-72
2023/07/20 08:49:35;;;;;;;;;;;;;;;;;;5091647;28;19928;-72
2023/07/20 08:52:02;;;;;;;;;;;;;;;;;;5091979;28;19955;-72
2023/07/20 08:54:29;;;;;;;;;;;;;;;;;;5092003;28;19985;-72
2023/07/20 08:56:56;;;;;;;;;;;;;;;;;;5077890;28;19963;-71
2023/07/20 08:59:23;;;;;;;;;;;;;;;;;;5076576;28;20027;-72
2023/07/20 09:01:50;;;;;;;;;;;;;;;;;;5091702;28;20018;-72
2023/07/20 09:04:17;;;;;;;;;;;;;;;;;;5095508;28;20015;-72
2023/07/20 09:06:44;;;;;;;;;;;;;;;;;;5095869;28;20015;-72
2023/07/20 09:09:12;;;;;;;;;;;;;;;;;;5095570;28;19970;-72
2023/07/20 09:11:39;;;;;;;;;;;;;;;;;;5094728;28;19924;-73
2023/07/20 09:14:06;;;;;;;;;;;;;;;;;;5084650;28;20011;-72
2023/07/20 09:16:33;;;;;;;;;;;;;;;;;;5075162;28;20027;-71
2023/07/20 09:19:00;;;;;;;;;;;;;;;;;;5092385;28;19924;-72
2023/07/20 09:21:27;;;;;;;;;;;;;;;;;;5095406;28;20007;-72
2023/07/20 09:23:54;;;;;;;;;;;;;;;;;;5095177;28;19956;-72
2023/07/20 09:26:21;;;;;;;;;;;;;;;;;;5095362;28;20023;-72
2023/07/20 09:28:48;;;;;;;;;;;;;;;;;;5095240;28;19924;-72
2023/07/20 09:31:15;;;;;;;;;;;;;;;;;;5093357;28;20330;-72
2023/07/20 09:33:43;;;;;;;;;;;;;;;;;;5094120;28;20357;-72
2023/07/20 09:36:11;;;;;;;;;;;;;;;;;;5093267;28;20276;-72
2023/07/20 09:38:38;;;;;;;;;;;;;;;;;;5094735;28;19970;-72
2023/07/20 09:41:05;;;;;;;;;;;;;;;;;;5094779;28;20387;-71
2023/07/20 09:43:32;;;;;;;;;;;;;;;;;;5094461;28;20359;-72
2023/07/20 09:45:59;;;;;;;;;;;;;;;;;;5094692;28;20345;-72
2023/07/20 09:48:26;;;;;;;;;;;;;;;;;;5094085;28;20306;-72
2023/07/20 09:50:53;;;;;;;;;;;;;;;;;;5094827;28;20358;-72
2023/07/20 09:53:20;;;;;;;;;;;;;;;;;;5094651;28;20039;-72
2023/07/20 09:55:47;;;;;;;;;;;;;;;;;;5094506;28;19932;-71
2023/07/20 09:58:14;;;;;;;;;;;;;;;;;;5094496;28;20062;-72
2023/07/20 10:00:43;;;;;;;;;;;;;;;;;;5094339;28;19924;-72
2023/07/20 10:03:10;;;;;;;;;;;;;;;;;;5094756;28;19931;-71
2023/07/20 10:05:37;;;;;;;;;;;;;;;;;;5074250;28;19979;-72
2023/07/20 10:08:04;;;;;;;;;;;;;;;;;;5074117;28;20427;-71
2023/07/20 10:10:31;;;;;;;;;;;;;;;;;;5073900;28;19925;-71
2023/07/20 10:12:58;;;;;;;;;;;;;;;;;;5073621;28;19975;-72
2023/07/20 10:15:25;;;;;;;;;;;;;;;;;;5073435;28;19931;-72
2023/07/20 10:17:52;;;;;;;;;;;;;;;;;;5075959;28;19925;-71
2023/07/20 10:20:19;;;;;;;;;;;;;;;;;;5091898;28;19924;-73
2023/07/20 10:22:46;;;;;;;;;;;;;;;;;;5093377;28;19964;-72
2023/07/20 10:25:13;;;;;;;;;;;;;;;;;;5091384;28;20321;-72
2023/07/20 10:27:40;;;;;;;;;;;;;;;;;;5091692;28;19977;-72
2023/07/20 10:30:07;;;;;;;;;;;;;;;;;;5093195;28;20333;-72
2023/07/20 10:32:34;;;;;;;;;;;;;;;;;;5091951;28;19924;-72
2023/07/20 10:35:01;;;;;;;;;;;;;;;;;;5094182;28;20010;-73
2023/07/20 10:37:28;;;;;;;;;;;;;;;;;;5092233;28;19930;-72
2023/07/20 10:39:56;;;;;;;;;;;;;;;;;;5093442;28;19995;-72
2023/07/20 10:42:23;;;;;;;;;;;;;;;;;;5093755;28;19959;-72
2023/07/20 10:44:50;;;;;;;;;;;;;;;;;;5093543;28;20375;-72
2023/07/20 10:47:17;;;;;;;;;;;;;;;;;;5093595;28;20010;-72
2023/07/20 10:49:44;;;;;;;;;;;;;;;;;;5092207;28;19924;-72
2023/07/20 10:52:11;;;;;;;;;;;;;;;;;;5089883;28;20034;-72
2023/07/20 10:54:37;;;;;;;;;;;;;;;;;;5087264;28;20015;-72
2023/07/20 10:57:04;;;;;;;;;;;;;;;;;;5084550;28;20024;-72
2023/07/20 10:59:31;;;;;;;;;;;;;;;;;;5073109;28;19968;-72
2023/07/20 11:02:01;;;;;;;;;;;;;;;;;;5086943;28;20007;-72
2023/07/20 11:04:28;;;;;;;;;;;;;;;;;;5093363;28;19928;-72
2023/07/20 11:06:55;;;;;;;;;;;;;;;;;;5093431;28;20329;-72
2023/07/20 11:09:22;;;;;;;;;;;;;;;;;;5093299;28;20380;-72
2023/07/20 11:11:49;;;;;;;;;;;;;;;;;;5092704;28;20032;-72
2023/07/20 11:14:16;;;;;;;;;;;;;;;;;;5078561;28;19928;-72
2023/07/20 11:16:43;;;;;;;;;;;;;;;;;;5072819;28;19976;-73
2023/07/20 11:19:10;;;;;;;;;;;;;;;;;;5079690;28;20397;-72
2023/07/20 11:21:37;;;;;;;;;;;;;;;;;;5092697;28;21014;-72
2023/07/20 11:24:04;;;;;;;;;;;;;;;;;;5092769;28;19931;-73
2023/07/20 11:26:31;;;;;;;;;;;;;;;;;;5093580;28;20315;-73
2023/07/20 11:28:58;;;;;;;;;;;;;;;;;;5086597;28;20031;-72
2023/07/20 11:31:25;;;;;;;;;;;;;;;;;;5072487;28;19924;-72
2023/07/20 11:33:52;;;;;;;;;;;;;;;;;;5073309;28;19924;-73
2023/07/20 11:36:19;;;;;;;;;;;;;;;;;;5092027;28;19928;-70
2023/07/20 11:38:46;;;;;;;;;;;;;;;;;;5092595;28;20014;-72
2023/07/20 11:41:13;;;;;;;;;;;;;;;;;;5092511;28;19924;-72
2023/07/20 11:43:40;;;;;;;;;;;;;;;;;;5092552;28;19928;-72
2023/07/20 11:46:07;;;;;;;;;;;;;;;;;;5091808;28;19966;-72
2023/07/20 11:48:34;;;;;;;;;;;;;;;;;;5092202;28;20390;-72
2023/07/20 11:51:01;;;;;;;;;;;;;;;;;;5091903;28;19956;-72
2023/07/20 11:53:30;;;;;;;;;;;;;;;;;;5092155;28;19946;-72
2023/07/20 11:55:57;;;;;;;;;;;;;;;;;;5092195;28;20019;-72
2023/07/20 11:58:24;;;;;;;;;;;;;;;;;;5091982;28;19924;-70
2023/07/20 12:00:51;;;;;;;;;;;;;;;;;;5091967;28;19970;-71
2023/07/20 12:03:18;;;;;;;;;;;;;;;;;;5083225;28;20023;-71
2023/07/20 12:05:45;;;;;;;;;;;;;;;;;;5072153;28;19931;-71
2023/07/20 12:08:12;;;;;;;;;;;;;;;;;;5072052;28;20018;-71
2023/07/20 12:10:42;;;;;;;;;;;;;;;;;;5071933;28;19924;-71
2023/07/20 12:13:09;;;;;;;;;;;;;;;;;;5085820;28;19985;-71
2023/07/20 12:15:36;;;;;;;;;;;;;;;;;;5092073;28;19978;-71
2023/07/20 12:18:03;;;;;;;;;;;;;;;;;;5092644;28;19924;-71
2023/07/20 12:20:30;;;;;;;;;;;;;;;;;;5082614;28;19931;-71
2023/07/20 12:22:57;;;;;;;;;;;;;;;;;;5072105;28;19972;-72
2023/07/20 12:25:24;;;;;;;;;;;;;;;;;;5080210;28;20072;-72
2023/07/20 12:27:51;;;;;;;;;;;;;;;;;;5092365;28;19924;-72
2023/07/20 12:30:18;;;;;;;;;;;;;;;;;;5092346;28;19978;-71
2023/07/20 12:32:45;;;;;;;;;;;;;;;;;;5091932;28;20313;-71
2023/07/20 12:35:14;;;;;;;;;;;;;;;;;;5092585;28;19950;-71
2023/07/20 12:37:41;;;;;;;;;;;;;;;;;;5094540;28;19936;-71
2023/07/20 12:40:10;;;;;;;;;;;;;;;;;;5094599;28;19928;-71
2023/07/20 12:42:37;;;;;;;;;;;;;;;;;;5094758;28;19931;-71
2023/07/20 12:45:04;;;;;;;;;;;;;;;;;;5093301;28;19924;-71
2023/07/20 12:47:31;;;;;;;;;;;;;;;;;;5093791;28;20048;-71
2023/07/20 12:49:58;;;;;;;;;;;;;;;;;;5095417;28;20391;-71
2023/07/20 12:52:25;;;;;;;;;;;;;;;;;;5094509;28;20370;-71
2023/07/20 12:54:52;;;;;;;;;;;;;;;;;;5093883;28;19924;-71
2023/07/20 12:57:19;;;;;;;;;;;;;;;;;;5094611;28;19973;-71
2023/07/20 12:59:46;;;;;;;;;;;;;;;;;;5093477;28;20004;-71
2023/07/20 13:02:13;;;;;;;;;;;;;;;;;;5093842;28;19986;-72
2023/07/20 13:04:40;;;;;;;;;;;;;;;;;;5096038;28;19994;-72
2023/07/20 13:07:07;;;;;;;;;;;;;;;;;;5095298;28;19924;-71
2023/07/20 13:09:34;;;;;;;;;;;;;;;;;;5095537;28;19924;-71
2023/07/20 13:12:01;;;;;;;;;;;;;;;;;;5093319;28;20474;-71
2023/07/20 13:14:29;;;;;;;;;;;;;;;;;;5095048;28;19975;-71
2023/07/20 13:16:56;;;;;;;;;;;;;;;;;;5093622;28;19924;-72
2023/07/20 13:19:23;;;;;;;;;;;;;;;;;;5094932;28;19924;-72
2023/07/20 13:21:50;;;;;;;;;;;;;;;;;;5095383;28;20234;-72
2023/07/20 13:24:17;;;;;;;;;;;;;;;;;;5094131;28;19924;-72
2023/07/20 13:26:44;;;;;;;;;;;;;;;;;;5090749;28;19925;-72
2023/07/20 13:29:11;;;;;;;;;;;;;;;;;;5089202;28;19985;-72
2023/07/20 13:31:38;;;;;;;;;;;;;;;;;;5093047;28;19924;-72
2023/07/20 13:34:05;;;;;;;;;;;;;;;;;;5095367;28;20007;-72
2023/07/20 13:36:32;;;;;;;;;;;;;;;;;;5095468;28;19930;-72
2023/07/20 13:38:59;;;;;;;;;;;;;;;;;;5095112;28;19963;-73
2023/07/20 13:41:26;;;;;;;;;;;;;;;;;;5095396;28;20371;-74
2023/07/20 13:43:53;;;;;;;;;;;;;;;;;;5095003;28;19978;-72
2023/07/20 13:46:20;;;;;;;;;;;;;;;;;;5093428;28;19975;-72
2023/07/20 13:48:47;;;;;;;;;;;;;;;;;;5095187;28;19974;-71
2023/07/20 13:51:14;;;;;;;;;;;;;;;;;;5080371;28;19947;-72
2023/07/20 13:53:41;;;;;;;;;;;;;;;;;;5088945;28;20011;-73
2023/07/20 13:56:08;;;;;;;;;;;;;;;;;;5092850;28;20026;-72
2023/07/20 13:58:36;;;;;;;;;;;;;;;;;;5074347;28;19968;-71
2023/07/20 14:01:03;;;;;;;;;;;;;;;;;;5073861;28;19924;-72
2023/07/20 14:03:30;;;;;;;;;;;;;;;;;;5092496;28;20012;-72
2023/07/20 14:05:57;;;;;;;;;;;;;;;;;;5093920;28;20018;-72
2023/07/20 14:08:24;;;;;;;;;;;;;;;;;;5090657;28;20023;-72
2023/07/20 14:10:51;;;;;;;;;;;;;;;;;;5094721;28;20018;-72
2023/07/20 14:13:18;;;;;;;;;;;;;;;;;;5094111;28;19928;-72
2023/07/20 14:15:45;;;;;;;;;;;;;;;;;;5094027;28;20366;-72
2023/07/20 14:18:12;;;;;;;;;;;;;;;;;;5094298;28;19923;-72
2023/07/20 14:20:39;;;;;;;;;;;;;;;;;;5085806;28;19924;-72
2023/07/20 14:23:06;;;;;;;;;;;;;;;;;;5093501;28;20405;-73
2023/07/20 14:25:33;;;;;;;;;;;;;;;;;;5093755;28;20031;-72
2023/07/20 14:28:00;;;;;;;;;;;;;;;;;;5094184;28;20038;-73
2023/07/20 14:30:30;;;;;;;;;;;;;;;;;;5091922;28;20027;-72
2023/07/20 14:32:57;;;;;;;;;;;;;;;;;;5086048;28;20023;-71
2023/07/20 14:35:24;;;;;;;;;;;;;;;;;;5074468;28;19929;-72
2023/07/20 14:37:51;;;;;;;;;;;;;;;;;;5084450;28;20028;-71
2023/07/20 14:40:18;;;;;;;;;;;;;;;;;;5080174;28;20401;-71
2023/07/20 14:42:45;;;;;;;;;;;;;;;;;;5092786;28;20038;-72
2023/07/20 14:45:12;;;;;;;;;;;;;;;;;;5092439;28;20035;-72
2023/07/20 14:47:39;;;;;;;;;;;;;;;;;;5093351;28;20034;-72
2023/07/20 14:50:06;;;;;;;;;;;;;;;;;;5094053;28;19949;-72
2023/07/20 14:52:33;;;;;;;;;;;;;;;;;;5091537;28;20019;-71
2023/07/20 14:55:00;;;;;;;;;;;;;;;;;;5093009;28;20442;-71
2023/07/20 14:57:27;;;;;;;;;;;;;;;;;;5092546;28;20482;-71
2023/07/20 14:59:54;;;;;;;;;;;;;;;;;;5090821;28;19936;-71
2023/07/20 15:02:21;;;;;;;;;;;;;;;;;;5092341;28;19924;-72
2023/07/20 15:04:48;;;;;;;;;;;;;;;;;;5092402;28;19943;-71
2023/07/20 15:07:15;;;;;;;;;;;;;;;;;;5093396;28;20314;-71
2023/07/20 15:09:42;;;;;;;;;;;;;;;;;;5088930;28;20350;-71
2023/07/20 15:12:10;;;;;;;;;;;;;;;;;;5093206;28;19924;-71
2023/07/20 15:14:37;;;;;;;;;;;;;;;;;;5092994;28;19935;-71
2023/07/20 15:17:04;;;;;;;;;;;;;;;;;;5093179;28;20023;-72
2023/07/20 15:19:31;;;;;;;;;;;;;;;;;;5092685;28;19933;-71
2023/07/20 15:21:58;;;;;;;;;;;;;;;;;;5090955;28;19924;-71
2023/07/20 15:24:25;;;;;;;;;;;;;;;;;;5092178;28;20018;-71
2023/07/20 15:26:52;;;;;;;;;;;;;;;;;;5086845;28;20474;-72
2023/07/20 15:29:20;;;;;;;;;;;;;;;;;;5086257;28;20409;-71
2023/07/20 15:31:48;;;;;;;;;;;;;;;;;;5092337;28;19924;-71
2023/07/20 15:34:15;;;;;;;;;;;;;;;;;;5090408;28;19924;-71
2023/07/20 15:36:42;;;;;;;;;;;;;;;;;;5090647;28;20014;-71
2023/07/20 15:39:09;;;;;;;;;;;;;;;;;;5090884;28;19954;-71
2023/07/20 15:41:37;;;;;;;;;;;;;;;;;;5092459;28;20371;-71
2023/07/20 15:44:04;;;;;;;;;;;;;;;;;;5089283;28;19924;-71
2023/07/20 15:46:31;;;;;;;;;;;;;;;;;;5091487;28;19978;-71
2023/07/20 15:48:58;;;;;;;;;;;;;;;;;;5091111;28;20015;-71
2023/07/20 15:51:24;;;;;;;;;;;;;;;;;;5091140;28;19930;-72
2023/07/20 15:53:51;;;;;;;;;;;;;;;;;;5092194;28;19931;-71
2023/07/20 15:56:18;;;;;;;;;;;;;;;;;;5092458;28;19977;-71
2023/07/20 15:58:45;;;;;;;;;;;;;;;;;;5092764;28;20379;-71
2023/07/20 16:01:12;;;;;;;;;;;;;;;;;;5091975;28;19974;-71
2023/07/20 16:03:39;;;;;;;;;;;;;;;;;;5091930;28;20287;-71
2023/07/20 16:06:06;;;;;;;;;;;;;;;;;;5092375;28;20023;-71
2023/07/20 16:08:33;;;;;;;;;;;;;;;;;;5092833;28;20002;-71
2023/07/20 16:11:02;;;;;;;;;;;;;;;;;;5092548;28;19931;-72
2023/07/20 16:13:29;;;;;;;;;;;;;;;;;;5092282;28;20436;-71
2023/07/20 16:15:56;;;;;;;;;;;;;;;;;;5091952;28;19924;-71
2023/07/20 16:18:23;;;;;;;;;;;;;;;;;;5091059;28;19928;-71
2023/07/20 16:20:50;;;;;;;;;;;;;;;;;;5091837;28;20038;-71
2023/07/20 16:23:17;;;;;;;;;;;;;;;;;;5092409;28;19924;-71
2023/07/20 16:25:44;;;;;;;;;;;;;;;;;;5090154;28;20000;-71
2023/07/20 16:28:11;;;;;;;;;;;;;;;;;;5088809;28;20008;-70
2023/07/20 16:30:40;;;;;;;;;;;;;;;;;;5088918;28;20016;-70
2023/07/20 16:33:07;;;;;;;;;;;;;;;;;;5091969;28;19928;-71
2023/07/20 16:35:34;;;;;;;;;;;;;;;;;;5090995;28;20287;-71
2023/07/20 16:38:01;;;;;;;;;;;;;;;;;;5091713;28;19924;-71
2023/07/20 16:40:28;;;;;;;;;;;;;;;;;;5090483;28;19967;-71
2023/07/20 16:42:55;;;;;;;;;;;;;;;;;;5091544;28;19959;-71